sensor_id;sensor_type;location;lat;lon;timestamp;temperature;humidity
59505;DHT22;45321;53.200;5.814;2024-03-07T00:01:49;6.60;84.10
59505;DHT22;45321;53.200;5.814;2024-03-07T00:04:15;6.60;84.10
59505;DHT22;45321;53.200;5.814;2024-03-07T00:06:41;6.60;84.10
59505;DHT22;45321;53.200;5.814;2024-03-07T00:09:07;6.60;84.20
59505;DHT22;45321;53.200;5.814;2024-03-07T00:11:35;6.60;84.10
59505;DHT22;45321;53.200;5.814;2024-03-07T00:14:01;6.60;84.10
59505;DHT22;45321;53.200;5.814;2024-03-07T00:16:26;6.60;84.10
59505;DHT22;45321;53.200;5.814;2024-03-07T00:18:53;6.60;84.00
59505;DHT22;45321;53.200;5.814;2024-03-07T00:21:19;6.50;84.10
59505;DHT22;45321;53.200;5.814;2024-03-07T00:23:44;6.50;84.10
59505;DHT22;45321;53.200;5.814;2024-03-07T00:26:10;6.50;84.10
59505;DHT22;45321;53.200;5.814;2024-03-07T00:28:36;6.40;84.00
59505;DHT22;45321;53.200;5.814;2024-03-07T00:31:05;6.40;84.10
59505;DHT22;45321;53.200;5.814;2024-03-07T00:33:33;6.40;84.10
59505;DHT22;45321;53.200;5.814;2024-03-07T00:35:58;6.40;84.10
59505;DHT22;45321;53.200;5.814;2024-03-07T00:38:25;6.40;84.20
59505;DHT22;45321;53.200;5.814;2024-03-07T00:40:51;6.30;84.10
59505;DHT22;45321;53.200;5.814;2024-03-07T00:43:17;6.30;84.30
59505;DHT22;45321;53.200;5.814;2024-03-07T00:45:43;6.30;84.30
59505;DHT22;45321;53.200;5.814;2024-03-07T00:48:09;6.30;84.30
59505;DHT22;45321;53.200;5.814;2024-03-07T00:50:36;6.30;84.30
59505;DHT22;45321;53.200;5.814;2024-03-07T00:53:02;6.30;84.30
59505;DHT22;45321;53.200;5.814;2024-03-07T00:55:28;6.30;84.30
59505;DHT22;45321;53.200;5.814;2024-03-07T00:57:54;6.30;84.30
59505;DHT22;45321;53.200;5.814;2024-03-07T01:00:25;6.30;84.20
59505;DHT22;45321;53.200;5.814;2024-03-07T01:02:50;6.30;84.20
59505;DHT22;45321;53.200;5.814;2024-03-07T01:05:19;6.30;84.20
59505;DHT22;45321;53.200;5.814;2024-03-07T01:07:45;6.30;84.20
59505;DHT22;45321;53.200;5.814;2024-03-07T01:10:15;6.30;84.00
59505;DHT22;45321;53.200;5.814;2024-03-07T01:12:41;6.30;83.90
59505;DHT22;45321;53.200;5.814;2024-03-07T01:15:08;6.20;83.90
59505;DHT22;45321;53.200;5.814;2024-03-07T01:17:36;6.20;83.90
59505;DHT22;45321;53.200;5.814;2024-03-07T01:20:01;6.10;83.80
59505;DHT22;45321;53.200;5.814;2024-03-07T01:22:28;6.10;83.80
59505;DHT22;45321;53.200;5.814;2024-03-07T01:24:53;6.10;83.80
59505;DHT22;45321;53.200;5.814;2024-03-07T01:27:20;6.10;83.70
59505;DHT22;45321;53.200;5.814;2024-03-07T01:29:46;6.10;83.60
59505;DHT22;45321;53.200;5.814;2024-03-07T01:32:11;6.00;83.60
59505;DHT22;45321;53.200;5.814;2024-03-07T01:34:37;6.10;83.60
59505;DHT22;45321;53.200;5.814;2024-03-07T01:37:03;6.00;83.50
59505;DHT22;45321;53.200;5.814;2024-03-07T01:39:28;6.00;83.50
59505;DHT22;45321;53.200;5.814;2024-03-07T01:41:54;5.90;83.40
59505;DHT22;45321;53.200;5.814;2024-03-07T01:44:20;6.00;83.40
59505;DHT22;45321;53.200;5.814;2024-03-07T01:46:46;5.90;83.40
59505;DHT22;45321;53.200;5.814;2024-03-07T01:49:12;5.90;83.30
59505;DHT22;45321;53.200;5.814;2024-03-07T01:51:38;5.80;83.30
59505;DHT22;45321;53.200;5.814;2024-03-07T01:54:08;5.80;83.30
59505;DHT22;45321;53.200;5.814;2024-03-07T01:56:36;5.80;83.30
59505;DHT22;45321;53.200;5.814;2024-03-07T01:59:03;5.80;83.40
59505;DHT22;45321;53.200;5.814;2024-03-07T02:01:31;5.80;83.40
59505;DHT22;45321;53.200;5.814;2024-03-07T02:03:57;5.80;83.40
59505;DHT22;45321;53.200;5.814;2024-03-07T02:06:23;5.80;83.40
59505;DHT22;45321;53.200;5.814;2024-03-07T02:08:49;5.70;83.40
59505;DHT22;45321;53.200;5.814;2024-03-07T02:11:15;5.70;83.40
59505;DHT22;45321;53.200;5.814;2024-03-07T02:13:41;5.70;83.40
59505;DHT22;45321;53.200;5.814;2024-03-07T02:16:07;5.70;83.50
59505;DHT22;45321;53.200;5.814;2024-03-07T02:18:35;5.70;83.50
59505;DHT22;45321;53.200;5.814;2024-03-07T02:21:00;5.70;83.50
59505;DHT22;45321;53.200;5.814;2024-03-07T02:23:31;5.60;83.40
59505;DHT22;45321;53.200;5.814;2024-03-07T02:25:57;5.60;83.40
59505;DHT22;45321;53.200;5.814;2024-03-07T02:28:24;5.60;83.50
59505;DHT22;45321;53.200;5.814;2024-03-07T02:30:50;5.60;83.50
59505;DHT22;45321;53.200;5.814;2024-03-07T02:33:15;5.60;83.40
59505;DHT22;45321;53.200;5.814;2024-03-07T02:35:41;5.60;83.40
59505;DHT22;45321;53.200;5.814;2024-03-07T02:38:07;5.60;83.40
59505;DHT22;45321;53.200;5.814;2024-03-07T02:40:34;5.70;83.30
59505;DHT22;45321;53.200;5.814;2024-03-07T02:42:59;5.60;83.30
59505;DHT22;45321;53.200;5.814;2024-03-07T02:45:25;5.60;83.20
59505;DHT22;45321;53.200;5.814;2024-03-07T02:47:52;5.60;83.20
59505;DHT22;45321;53.200;5.814;2024-03-07T02:50:19;5.60;83.20
59505;DHT22;45321;53.200;5.814;2024-03-07T02:52:47;5.50;83.20
59505;DHT22;45321;53.200;5.814;2024-03-07T02:55:14;5.50;83.20
59505;DHT22;45321;53.200;5.814;2024-03-07T02:57:39;5.50;83.20
59505;DHT22;45321;53.200;5.814;2024-03-07T03:00:06;5.50;83.10
59505;DHT22;45321;53.200;5.814;2024-03-07T03:02:48;5.40;83.10
59505;DHT22;45321;53.200;5.814;2024-03-07T03:05:15;5.40;83.20
59505;DHT22;45321;53.200;5.814;2024-03-07T03:07:41;5.40;83.20
59505;DHT22;45321;53.200;5.814;2024-03-07T03:10:07;5.40;83.30
59505;DHT22;45321;53.200;5.814;2024-03-07T03:12:37;5.40;83.30
59505;DHT22;45321;53.200;5.814;2024-03-07T03:15:04;5.40;83.30
59505;DHT22;45321;53.200;5.814;2024-03-07T03:17:30;5.40;83.30
59505;DHT22;45321;53.200;5.814;2024-03-07T03:19:56;5.40;83.40
59505;DHT22;45321;53.200;5.814;2024-03-07T03:22:22;5.40;83.40
59505;DHT22;45321;53.200;5.814;2024-03-07T03:24:48;5.30;83.40
59505;DHT22;45321;53.200;5.814;2024-03-07T03:27:13;5.30;83.40
59505;DHT22;45321;53.200;5.814;2024-03-07T03:29:39;5.30;83.50
59505;DHT22;45321;53.200;5.814;2024-03-07T03:32:06;5.30;83.50
59505;DHT22;45321;53.200;5.814;2024-03-07T03:34:33;5.30;83.40
59505;DHT22;45321;53.200;5.814;2024-03-07T03:36:59;5.30;83.50
59505;DHT22;45321;53.200;5.814;2024-03-07T03:39:25;5.20;83.50
59505;DHT22;45321;53.200;5.814;2024-03-07T03:41:52;5.20;83.50
59505;DHT22;45321;53.200;5.814;2024-03-07T03:44:18;5.20;83.50
59505;DHT22;45321;53.200;5.814;2024-03-07T03:46:44;5.10;83.60
59505;DHT22;45321;53.200;5.814;2024-03-07T03:49:10;5.10;83.60
59505;DHT22;45321;53.200;5.814;2024-03-07T03:51:35;5.10;83.60
59505;DHT22;45321;53.200;5.814;2024-03-07T03:54:01;5.10;83.60
59505;DHT22;45321;53.200;5.814;2024-03-07T03:56:27;5.00;83.60
59505;DHT22;45321;53.200;5.814;2024-03-07T03:58:53;5.00;83.60
59505;DHT22;45321;53.200;5.814;2024-03-07T04:01:19;5.00;83.60
59505;DHT22;45321;53.200;5.814;2024-03-07T04:03:45;4.90;83.70
59505;DHT22;45321;53.200;5.814;2024-03-07T04:06:13;4.90;83.70
59505;DHT22;45321;53.200;5.814;2024-03-07T04:08:39;4.90;83.70
59505;DHT22;45321;53.200;5.814;2024-03-07T04:11:05;4.90;83.80
59505;DHT22;45321;53.200;5.814;2024-03-07T04:13:35;4.90;83.80
59505;DHT22;45321;53.200;5.814;2024-03-07T04:16:00;4.90;83.80
59505;DHT22;45321;53.200;5.814;2024-03-07T04:18:26;4.90;83.80
59505;DHT22;45321;53.200;5.814;2024-03-07T04:20:52;4.90;83.80
59505;DHT22;45321;53.200;5.814;2024-03-07T04:23:18;4.80;83.80
59505;DHT22;45321;53.200;5.814;2024-03-07T04:25:44;4.80;83.70
59505;DHT22;45321;53.200;5.814;2024-03-07T04:28:09;4.80;83.80
59505;DHT22;45321;53.200;5.814;2024-03-07T04:30:35;4.80;83.80
59505;DHT22;45321;53.200;5.814;2024-03-07T04:33:01;4.80;83.80
59505;DHT22;45321;53.200;5.814;2024-03-07T04:35:27;4.80;83.80
59505;DHT22;45321;53.200;5.814;2024-03-07T04:37:53;4.80;83.70
59505;DHT22;45321;53.200;5.814;2024-03-07T04:40:18;4.70;83.70
59505;DHT22;45321;53.200;5.814;2024-03-07T04:42:48;4.70;83.80
59505;DHT22;45321;53.200;5.814;2024-03-07T04:45:19;4.60;83.80
59505;DHT22;45321;53.200;5.814;2024-03-07T04:47:47;4.60;83.70
59505;DHT22;45321;53.200;5.814;2024-03-07T04:50:13;4.60;83.80
59505;DHT22;45321;53.200;5.814;2024-03-07T04:52:42;4.60;83.70
59505;DHT22;45321;53.200;5.814;2024-03-07T04:55:09;4.60;83.70
59505;DHT22;45321;53.200;5.814;2024-03-07T04:57:37;4.60;83.80
59505;DHT22;45321;53.200;5.814;2024-03-07T05:00:09;4.50;83.70
59505;DHT22;45321;53.200;5.814;2024-03-07T05:02:41;4.50;83.70
59505;DHT22;45321;53.200;5.814;2024-03-07T05:05:07;4.40;83.60
59505;DHT22;45321;53.200;5.814;2024-03-07T05:07:33;4.50;83.60
59505;DHT22;45321;53.200;5.814;2024-03-07T05:09:59;4.40;83.60
59505;DHT22;45321;53.200;5.814;2024-03-07T05:12:25;4.40;83.60
59505;DHT22;45321;53.200;5.814;2024-03-07T05:14:51;4.40;83.60
59505;DHT22;45321;53.200;5.814;2024-03-07T05:17:17;4.40;83.60
59505;DHT22;45321;53.200;5.814;2024-03-07T05:19:45;4.40;83.60
59505;DHT22;45321;53.200;5.814;2024-03-07T05:22:11;4.40;83.50
59505;DHT22;45321;53.200;5.814;2024-03-07T05:24:41;4.30;83.50
59505;DHT22;45321;53.200;5.814;2024-03-07T05:27:08;4.30;83.60
59505;DHT22;45321;53.200;5.814;2024-03-07T05:29:37;4.30;83.60
59505;DHT22;45321;53.200;5.814;2024-03-07T05:32:23;4.30;83.60
59505;DHT22;45321;53.200;5.814;2024-03-07T05:34:49;4.30;83.70
59505;DHT22;45321;53.200;5.814;2024-03-07T05:37:14;4.30;83.80
59505;DHT22;45321;53.200;5.814;2024-03-07T05:39:40;4.30;83.70
59505;DHT22;45321;53.200;5.814;2024-03-07T05:42:06;4.20;83.80
59505;DHT22;45321;53.200;5.814;2024-03-07T05:44:33;4.30;83.80
59505;DHT22;45321;53.200;5.814;2024-03-07T05:46:58;4.20;83.90
59505;DHT22;45321;53.200;5.814;2024-03-07T05:49:24;4.20;83.90
59505;DHT22;45321;53.200;5.814;2024-03-07T05:51:50;4.20;84.00
59505;DHT22;45321;53.200;5.814;2024-03-07T05:54:16;4.20;84.00
59505;DHT22;45321;53.200;5.814;2024-03-07T05:56:41;4.20;84.10
59505;DHT22;45321;53.200;5.814;2024-03-07T05:59:08;4.20;84.10
59505;DHT22;45321;53.200;5.814;2024-03-07T06:01:37;4.30;84.10
59505;DHT22;45321;53.200;5.814;2024-03-07T06:04:05;4.30;84.10
59505;DHT22;45321;53.200;5.814;2024-03-07T06:06:35;4.30;84.00
59505;DHT22;45321;53.200;5.814;2024-03-07T06:09:03;4.30;83.90
59505;DHT22;45321;53.200;5.814;2024-03-07T06:11:38;4.20;83.90
59505;DHT22;45321;53.200;5.814;2024-03-07T06:14:05;4.20;83.90
59505;DHT22;45321;53.200;5.814;2024-03-07T06:16:33;4.10;83.90
59505;DHT22;45321;53.200;5.814;2024-03-07T06:19:03;4.10;84.00
59505;DHT22;45321;53.200;5.814;2024-03-07T06:21:29;4.10;84.00
59505;DHT22;45321;53.200;5.814;2024-03-07T06:23:58;4.10;83.90
59505;DHT22;45321;53.200;5.814;2024-03-07T06:26:33;4.10;84.00
59505;DHT22;45321;53.200;5.814;2024-03-07T06:29:25;4.10;84.00
59505;DHT22;45321;53.200;5.814;2024-03-07T06:31:54;4.10;84.10
59505;DHT22;45321;53.200;5.814;2024-03-07T06:34:20;4.10;84.20
59505;DHT22;45321;53.200;5.814;2024-03-07T06:36:45;4.10;84.20
59505;DHT22;45321;53.200;5.814;2024-03-07T06:39:11;4.20;84.20
59505;DHT22;45321;53.200;5.814;2024-03-07T06:41:38;4.20;84.30
59505;DHT22;45321;53.200;5.814;2024-03-07T06:44:04;4.20;84.30
59505;DHT22;45321;53.200;5.814;2024-03-07T06:46:30;4.30;84.30
59505;DHT22;45321;53.200;5.814;2024-03-07T06:48:57;4.30;84.20
59505;DHT22;45321;53.200;5.814;2024-03-07T06:51:23;4.30;84.10
59505;DHT22;45321;53.200;5.814;2024-03-07T06:53:50;4.40;84.20
59505;DHT22;45321;53.200;5.814;2024-03-07T06:56:16;4.40;84.20
59505;DHT22;45321;53.200;5.814;2024-03-07T06:58:42;4.40;84.20
59505;DHT22;45321;53.200;5.814;2024-03-07T07:01:10;4.50;84.20
59505;DHT22;45321;53.200;5.814;2024-03-07T07:03:37;4.50;84.10
59505;DHT22;45321;53.200;5.814;2024-03-07T07:06:04;4.60;84.10
59505;DHT22;45321;53.200;5.814;2024-03-07T07:08:33;4.60;84.10
59505;DHT22;45321;53.200;5.814;2024-03-07T07:10:59;4.70;84.00
59505;DHT22;45321;53.200;5.814;2024-03-07T07:13:24;4.70;84.00
59505;DHT22;45321;53.200;5.814;2024-03-07T07:15:51;4.70;84.00
59505;DHT22;45321;53.200;5.814;2024-03-07T07:18:17;4.70;84.10
59505;DHT22;45321;53.200;5.814;2024-03-07T07:20:42;4.70;84.10
59505;DHT22;45321;53.200;5.814;2024-03-07T07:23:08;4.70;84.20
59505;DHT22;45321;53.200;5.814;2024-03-07T07:25:34;4.70;84.30
59505;DHT22;45321;53.200;5.814;2024-03-07T07:28:00;4.80;84.30
59505;DHT22;45321;53.200;5.814;2024-03-07T07:30:26;4.80;84.40
59505;DHT22;45321;53.200;5.814;2024-03-07T07:32:53;4.90;84.30
59505;DHT22;45321;53.200;5.814;2024-03-07T07:35:22;4.90;84.50
59505;DHT22;45321;53.200;5.814;2024-03-07T07:37:49;4.90;84.30
59505;DHT22;45321;53.200;5.814;2024-03-07T07:40:18;5.00;84.30
59505;DHT22;45321;53.200;5.814;2024-03-07T07:42:45;5.10;84.30
59505;DHT22;45321;53.200;5.814;2024-03-07T07:45:13;5.10;84.20
59505;DHT22;45321;53.200;5.814;2024-03-07T07:47:40;5.10;84.10
59505;DHT22;45321;53.200;5.814;2024-03-07T07:50:09;5.10;84.10
59505;DHT22;45321;53.200;5.814;2024-03-07T07:52:44;5.20;84.10
59505;DHT22;45321;53.200;5.814;2024-03-07T07:55:10;5.30;84.10
59505;DHT22;45321;53.200;5.814;2024-03-07T07:57:46;5.30;84.10
59505;DHT22;45321;53.200;5.814;2024-03-07T08:00:14;5.40;84.10
59505;DHT22;45321;53.200;5.814;2024-03-07T08:02:58;5.40;83.90
59505;DHT22;45321;53.200;5.814;2024-03-07T08:05:31;5.50;83.80
59505;DHT22;45321;53.200;5.814;2024-03-07T08:08:03;5.50;83.80
59505;DHT22;45321;53.200;5.814;2024-03-07T08:10:30;5.60;83.90
59505;DHT22;45321;53.200;5.814;2024-03-07T08:12:57;5.60;83.90
59505;DHT22;45321;53.200;5.814;2024-03-07T08:15:26;5.70;83.90
59505;DHT22;45321;53.200;5.814;2024-03-07T08:17:53;5.70;83.70
59505;DHT22;45321;53.200;5.814;2024-03-07T08:20:21;5.80;83.80
59505;DHT22;45321;53.200;5.814;2024-03-07T08:22:52;5.80;83.90
59505;DHT22;45321;53.200;5.814;2024-03-07T08:25:25;5.90;83.80
59505;DHT22;45321;53.200;5.814;2024-03-07T08:27:53;6.00;83.80
59505;DHT22;45321;53.200;5.814;2024-03-07T08:30:20;6.00;83.70
59505;DHT22;45321;53.200;5.814;2024-03-07T08:32:48;6.10;83.50
59505;DHT22;45321;53.200;5.814;2024-03-07T08:35:14;6.00;83.30
59505;DHT22;45321;53.200;5.814;2024-03-07T08:37:43;6.00;83.20
59505;DHT22;45321;53.200;5.814;2024-03-07T08:40:10;5.90;83.30
59505;DHT22;45321;53.200;5.814;2024-03-07T08:42:40;6.00;83.40
59505;DHT22;45321;53.200;5.814;2024-03-07T08:45:08;5.90;83.20
59505;DHT22;45321;53.200;5.814;2024-03-07T08:47:37;5.90;83.20
59505;DHT22;45321;53.200;5.814;2024-03-07T08:50:04;5.90;83.10
59505;DHT22;45321;53.200;5.814;2024-03-07T08:52:37;5.80;82.90
59505;DHT22;45321;53.200;5.814;2024-03-07T08:55:04;5.80;83.00
59505;DHT22;45321;53.200;5.814;2024-03-07T08:57:30;5.70;82.90
59505;DHT22;45321;53.200;5.814;2024-03-07T08:59:56;5.70;83.00
59505;DHT22;45321;53.200;5.814;2024-03-07T09:02:22;5.70;83.10
59505;DHT22;45321;53.200;5.814;2024-03-07T09:04:48;5.70;83.00
59505;DHT22;45321;53.200;5.814;2024-03-07T09:07:14;5.70;83.10
59505;DHT22;45321;53.200;5.814;2024-03-07T09:09:43;5.70;83.30
59505;DHT22;45321;53.200;5.814;2024-03-07T09:12:11;5.70;83.30
59505;DHT22;45321;53.200;5.814;2024-03-07T09:14:37;5.60;83.20
59505;DHT22;45321;53.200;5.814;2024-03-07T09:17:03;5.60;83.30
59505;DHT22;45321;53.200;5.814;2024-03-07T09:19:31;5.60;83.30
59505;DHT22;45321;53.200;5.814;2024-03-07T09:21:56;5.50;83.10
59505;DHT22;45321;53.200;5.814;2024-03-07T09:24:22;5.50;83.10
59505;DHT22;45321;53.200;5.814;2024-03-07T09:26:51;5.40;83.00
59505;DHT22;45321;53.200;5.814;2024-03-07T09:29:19;5.50;83.20
59505;DHT22;45321;53.200;5.814;2024-03-07T09:31:46;5.50;83.40
59505;DHT22;45321;53.200;5.814;2024-03-07T09:34:14;5.60;83.30
59505;DHT22;45321;53.200;5.814;2024-03-07T09:36:40;5.60;83.30
59505;DHT22;45321;53.200;5.814;2024-03-07T09:39:07;5.60;83.40
59505;DHT22;45321;53.200;5.814;2024-03-07T09:41:34;5.80;83.30
59505;DHT22;45321;53.200;5.814;2024-03-07T09:44:00;5.80;83.20
59505;DHT22;45321;53.200;5.814;2024-03-07T09:46:26;5.80;83.00
59505;DHT22;45321;53.200;5.814;2024-03-07T09:48:53;5.90;83.10
59505;DHT22;45321;53.200;5.814;2024-03-07T09:51:23;5.90;83.00
59505;DHT22;45321;53.200;5.814;2024-03-07T09:53:50;6.10;82.80
59505;DHT22;45321;53.200;5.814;2024-03-07T09:56:21;6.10;82.70
59505;DHT22;45321;53.200;5.814;2024-03-07T09:58:51;6.10;82.20
59505;DHT22;45321;53.200;5.814;2024-03-07T10:01:21;6.00;81.80
59505;DHT22;45321;53.200;5.814;2024-03-07T10:03:48;5.80;81.70
59505;DHT22;45321;53.200;5.814;2024-03-07T10:06:15;5.90;82.00
59505;DHT22;45321;53.200;5.814;2024-03-07T10:08:42;5.90;82.30
59505;DHT22;45321;53.200;5.814;2024-03-07T10:11:09;6.00;82.20
59505;DHT22;45321;53.200;5.814;2024-03-07T10:13:35;5.90;81.70
59505;DHT22;45321;53.200;5.814;2024-03-07T10:16:04;5.80;81.60
59505;DHT22;45321;53.200;5.814;2024-03-07T10:18:31;5.80;81.40
59505;DHT22;45321;53.200;5.814;2024-03-07T10:20:57;5.80;81.60
59505;DHT22;45321;53.200;5.814;2024-03-07T10:23:24;5.80;81.70
59505;DHT22;45321;53.200;5.814;2024-03-07T10:25:50;5.70;81.80
59505;DHT22;45321;53.200;5.814;2024-03-07T10:28:19;5.70;81.90
59505;DHT22;45321;53.200;5.814;2024-03-07T10:30:46;5.70;81.90
59505;DHT22;45321;53.200;5.814;2024-03-07T10:33:16;5.60;81.80
59505;DHT22;45321;53.200;5.814;2024-03-07T10:35:42;5.60;82.00
59505;DHT22;45321;53.200;5.814;2024-03-07T10:38:08;5.60;82.10
59505;DHT22;45321;53.200;5.814;2024-03-07T10:40:38;5.70;82.10
59505;DHT22;45321;53.200;5.814;2024-03-07T10:43:10;5.70;82.10
59505;DHT22;45321;53.200;5.814;2024-03-07T10:45:46;5.80;82.20
59505;DHT22;45321;53.200;5.814;2024-03-07T10:48:13;5.80;82.10
59505;DHT22;45321;53.200;5.814;2024-03-07T10:50:52;5.80;82.10
59505;DHT22;45321;53.200;5.814;2024-03-07T10:53:46;5.80;82.00
59505;DHT22;45321;53.200;5.814;2024-03-07T10:59:19;5.80;81.90
59505;DHT22;45321;53.200;5.814;2024-03-07T11:04:53;5.60;81.80
59505;DHT22;45321;53.200;5.814;2024-03-07T11:07:23;5.60;81.90
59505;DHT22;45321;53.200;5.814;2024-03-07T11:09:49;5.70;82.20
59505;DHT22;45321;53.200;5.814;2024-03-07T11:12:21;5.70;82.10
59505;DHT22;45321;53.200;5.814;2024-03-07T11:14:50;5.80;81.80
59505;DHT22;45321;53.200;5.814;2024-03-07T11:17:18;5.80;81.70
59505;DHT22;45321;53.200;5.814;2024-03-07T11:19:45;5.80;81.70
59505;DHT22;45321;53.200;5.814;2024-03-07T11:22:28;5.90;81.50
59505;DHT22;45321;53.200;5.814;2024-03-07T11:25:04;5.90;81.50
59505;DHT22;45321;53.200;5.814;2024-03-07T11:27:37;5.90;81.60
59505;DHT22;45321;53.200;5.814;2024-03-07T11:30:08;6.10;81.60
59505;DHT22;45321;53.200;5.814;2024-03-07T11:32:38;6.30;81.80
59505;DHT22;45321;53.200;5.814;2024-03-07T11:35:05;6.70;81.90
59505;DHT22;45321;53.200;5.814;2024-03-07T11:37:43;7.00;81.50
59505;DHT22;45321;53.200;5.814;2024-03-07T11:40:42;7.20;80.10
59505;DHT22;45321;53.200;5.814;2024-03-07T11:43:00;7.40;80.20
59505;DHT22;45321;53.200;5.814;2024-03-07T11:45:26;7.50;79.40
59505;DHT22;45321;53.200;5.814;2024-03-07T11:47:58;7.50;78.80
59505;DHT22;45321;53.200;5.814;2024-03-07T11:50:41;7.50;78.70
59505;DHT22;45321;53.200;5.814;2024-03-07T11:53:09;7.80;78.90
59505;DHT22;45321;53.200;5.814;2024-03-07T11:55:39;8.10;78.60
59505;DHT22;45321;53.200;5.814;2024-03-07T11:58:20;8.30;77.30
59505;DHT22;45321;53.200;5.814;2024-03-07T12:00:47;8.40;77.50
59505;DHT22;45321;53.200;5.814;2024-03-07T12:03:17;8.50;76.70
59505;DHT22;45321;53.200;5.814;2024-03-07T12:05:47;8.60;76.40
59505;DHT22;45321;53.200;5.814;2024-03-07T12:08:13;8.70;75.60
59505;DHT22;45321;53.200;5.814;2024-03-07T12:10:42;8.80;75.40
59505;DHT22;45321;53.200;5.814;2024-03-07T12:13:13;8.90;75.20
59505;DHT22;45321;53.200;5.814;2024-03-07T12:15:41;9.20;74.60
59505;DHT22;45321;53.200;5.814;2024-03-07T12:18:08;9.40;74.10
59505;DHT22;45321;53.200;5.814;2024-03-07T12:20:39;9.70;73.50
59505;DHT22;45321;53.200;5.814;2024-03-07T12:23:07;10.20;73.20
59505;DHT22;45321;53.200;5.814;2024-03-07T12:25:38;10.60;72.90
59505;DHT22;45321;53.200;5.814;2024-03-07T12:28:11;10.70;71.80
59505;DHT22;45321;53.200;5.814;2024-03-07T12:30:51;10.60;71.10
59505;DHT22;45321;53.200;5.814;2024-03-07T12:33:18;10.50;71.10
59505;DHT22;45321;53.200;5.814;2024-03-07T12:35:46;10.30;70.30
59505;DHT22;45321;53.200;5.814;2024-03-07T12:38:13;9.90;69.20
59505;DHT22;45321;53.200;5.814;2024-03-07T12:40:42;9.70;69.80
59505;DHT22;45321;53.200;5.814;2024-03-07T12:48:18;9.10;71.70
59505;DHT22;45321;53.200;5.814;2024-03-07T12:50:47;8.90;71.50
59505;DHT22;45321;53.200;5.814;2024-03-07T12:53:20;8.80;72.00
59505;DHT22;45321;53.200;5.814;2024-03-07T12:55:47;8.70;72.50
59505;DHT22;45321;53.200;5.814;2024-03-07T12:58:13;8.70;72.70
59505;DHT22;45321;53.200;5.814;2024-03-07T13:00:41;8.80;72.70
59505;DHT22;45321;53.200;5.814;2024-03-07T13:03:07;8.90;73.10
59505;DHT22;45321;53.200;5.814;2024-03-07T13:05:39;9.10;72.60
59505;DHT22;45321;53.200;5.814;2024-03-07T13:08:06;9.40;72.50
59505;DHT22;45321;53.200;5.814;2024-03-07T13:10:42;9.70;71.90
59505;DHT22;45321;53.200;5.814;2024-03-07T13:13:08;9.80;71.90
59505;DHT22;45321;53.200;5.814;2024-03-07T13:15:37;9.80;70.70
59505;DHT22;45321;53.200;5.814;2024-03-07T13:18:06;9.70;70.50
59505;DHT22;45321;53.200;5.814;2024-03-07T13:20:35;9.60;71.10
59505;DHT22;45321;53.200;5.814;2024-03-07T13:23:00;9.40;71.30
59505;DHT22;45321;53.200;5.814;2024-03-07T13:25:27;9.30;71.10
59505;DHT22;45321;53.200;5.814;2024-03-07T13:30:25;8.90;71.00
59505;DHT22;45321;53.200;5.814;2024-03-07T13:32:55;8.70;71.10
59505;DHT22;45321;53.200;5.814;2024-03-07T13:35:22;8.60;72.10
59505;DHT22;45321;53.200;5.814;2024-03-07T13:37:49;8.60;72.40
59505;DHT22;45321;53.200;5.814;2024-03-07T13:40:16;8.50;72.70
59505;DHT22;45321;53.200;5.814;2024-03-07T13:42:58;8.60;73.10
59505;DHT22;45321;53.200;5.814;2024-03-07T13:47:53;8.60;73.40
59505;DHT22;45321;53.200;5.814;2024-03-07T13:50:21;8.50;73.00
59505;DHT22;45321;53.200;5.814;2024-03-07T13:52:57;8.50;73.10
59505;DHT22;45321;53.200;5.814;2024-03-07T14:15:29;8.30;74.80
59505;DHT22;45321;53.200;5.814;2024-03-07T14:24:32;8.40;75.00
59505;DHT22;45321;53.200;5.814;2024-03-07T14:27:40;8.30;75.00
59505;DHT22;45321;53.200;5.814;2024-03-07T14:33:13;8.40;75.40
59505;DHT22;45321;53.200;5.814;2024-03-07T14:36:02;8.40;75.30
59505;DHT22;45321;53.200;5.814;2024-03-07T14:41:10;8.30;75.60
59505;DHT22;45321;53.200;5.814;2024-03-07T14:43:38;8.30;75.80
59505;DHT22;45321;53.200;5.814;2024-03-07T14:46:04;8.30;75.80
59505;DHT22;45321;53.200;5.814;2024-03-07T14:48:30;8.30;75.80
59505;DHT22;45321;53.200;5.814;2024-03-07T14:50:58;8.40;75.80
59505;DHT22;45321;53.200;5.814;2024-03-07T14:53:24;8.40;75.80
59505;DHT22;45321;53.200;5.814;2024-03-07T14:55:50;8.40;75.90
59505;DHT22;45321;53.200;5.814;2024-03-07T14:58:17;8.40;75.90
59505;DHT22;45321;53.200;5.814;2024-03-07T15:00:43;8.40;76.10
59505;DHT22;45321;53.200;5.814;2024-03-07T15:03:11;8.30;76.20
59505;DHT22;45321;53.200;5.814;2024-03-07T15:05:43;8.30;76.10
59505;DHT22;45321;53.200;5.814;2024-03-07T15:08:16;8.30;76.10
59505;DHT22;45321;53.200;5.814;2024-03-07T15:10:50;8.30;75.70
59505;DHT22;45321;53.200;5.814;2024-03-07T15:13:17;8.30;75.90
59505;DHT22;45321;53.200;5.814;2024-03-07T15:15:43;8.30;75.70
59505;DHT22;45321;53.200;5.814;2024-03-07T15:18:10;8.40;75.30
59505;DHT22;45321;53.200;5.814;2024-03-07T15:20:36;8.30;75.50
59505;DHT22;45321;53.200;5.814;2024-03-07T15:23:02;8.40;75.30
59505;DHT22;45321;53.200;5.814;2024-03-07T15:25:32;8.30;75.30
59505;DHT22;45321;53.200;5.814;2024-03-07T15:27:59;8.30;75.60
59505;DHT22;45321;53.200;5.814;2024-03-07T15:30:26;8.30;75.80
59505;DHT22;45321;53.200;5.814;2024-03-07T15:33:01;8.30;76.00
59505;DHT22;45321;53.200;5.814;2024-03-07T15:35:27;8.30;76.10
59505;DHT22;45321;53.200;5.814;2024-03-07T15:37:53;8.30;75.90
59505;DHT22;45321;53.200;5.814;2024-03-07T15:40:20;8.20;76.10
59505;DHT22;45321;53.200;5.814;2024-03-07T15:42:56;8.20;76.10
59505;DHT22;45321;53.200;5.814;2024-03-07T15:45:23;8.20;76.20
59505;DHT22;45321;53.200;5.814;2024-03-07T15:47:57;8.20;76.30
59505;DHT22;45321;53.200;5.814;2024-03-07T15:50:24;8.20;76.20
59505;DHT22;45321;53.200;5.814;2024-03-07T15:52:55;8.20;76.10
59505;DHT22;45321;53.200;5.814;2024-03-07T15:55:21;8.20;76.10
59505;DHT22;45321;53.200;5.814;2024-03-07T15:57:55;8.20;76.30
59505;DHT22;45321;53.200;5.814;2024-03-07T16:00:23;8.20;76.20
59505;DHT22;45321;53.200;5.814;2024-03-07T16:02:56;8.30;76.30
59505;DHT22;45321;53.200;5.814;2024-03-07T16:05:24;8.20;76.30
59505;DHT22;45321;53.200;5.814;2024-03-07T16:07:54;8.20;76.30
59505;DHT22;45321;53.200;5.814;2024-03-07T16:10:28;8.30;76.40
59505;DHT22;45321;53.200;5.814;2024-03-07T16:12:56;8.30;76.50
59505;DHT22;45321;53.200;5.814;2024-03-07T16:15:22;8.30;76.50
59505;DHT22;45321;53.200;5.814;2024-03-07T16:17:52;8.30;76.50
59505;DHT22;45321;53.200;5.814;2024-03-07T16:20:20;8.30;76.70
59505;DHT22;45321;53.200;5.814;2024-03-07T16:22:47;8.30;76.70
59505;DHT22;45321;53.200;5.814;2024-03-07T16:25:15;8.30;76.70
59505;DHT22;45321;53.200;5.814;2024-03-07T16:27:42;8.30;76.60
59505;DHT22;45321;53.200;5.814;2024-03-07T16:30:16;8.30;76.70
59505;DHT22;45321;53.200;5.814;2024-03-07T16:32:47;8.30;76.90
59505;DHT22;45321;53.200;5.814;2024-03-07T16:35:18;8.30;76.90
59505;DHT22;45321;53.200;5.814;2024-03-07T16:37:48;8.20;77.00
59505;DHT22;45321;53.200;5.814;2024-03-07T16:40:15;8.20;77.20